Site:       
  Group:  
  From:      To:        
   
Sensor Name: Furnace      Latitude:-9.57320000 , Longitude:53.92290000
Please click on the Table Headers to view a Graph of the Observations.
TimeMax. Temp. (°C)Min. Temp. (°C)Mean Temp. (°C)Tot. Rain (mm)Mean Wind (kn)Max Gust (kn)Solar Rad. (J\cm2)Humidity (%)Atmos. Press. (mb)Temp. 5cm (°C)Temp. 10cm (°C)Temp. 20cm (°C)Temp. 30cm (°C)Temp. 50cm (°C)Temp. 100cm (°C)Grass Min. (°C)
23/10/2021 23:00:0012.60 12.10 12.30 0.00 9.70 16.10 0.00 94.80 1002.80 11.60 11.70 11.70 12.00 12.20 13.30 11.40
23/10/2021 22:00:0012.30 12.00 12.10 0.00 8.60 16.40 0.00 96.20 1002.80 11.80 11.80 11.70 11.90 12.20 13.30 10.90
23/10/2021 21:00:0013.10 12.20 12.60 0.40 9.60 17.10 0.00 96.10 1002.70 12.00 11.90 11.70 11.90 12.20 13.30 11.10
23/10/2021 20:00:0013.20 13.00 13.10 0.20 10.80 17.60 0.00 94.90 1002.70 12.00 11.90 11.60 11.90 12.10 13.30 12.50
23/10/2021 19:00:0013.10 13.00 13.10 1.30 11.40 20.90 0.00 96.40 1003.10 12.00 11.90 11.60 11.80 12.10 13.30 12.60
23/10/2021 18:00:0013.40 13.10 13.30 1.20 13.30 19.90 0.00 95.40 1003.10 12.00 11.80 11.50 11.80 12.10 13.30 12.70
23/10/2021 17:00:0013.40 13.10 13.30 0.90 15.50 23.80 1.80 95.10 1003.00 11.90 11.70 11.50 11.80 12.10 13.30 12.60
23/10/2021 16:00:0013.20 12.70 13.00 2.20 16.70 27.20 5.70 94.30 1003.40 11.80 11.60 11.40 11.70 12.10 13.30 12.30
23/10/2021 15:00:0012.70 12.40 12.50 1.20 13.60 21.60 6.00 94.10 1004.10 11.70 11.60 11.40 11.70 12.10 13.30 11.90
23/10/2021 14:00:0012.90 12.40 12.70 1.00 12.30 19.20 7.30 92.00 1005.10 11.60 11.50 11.30 11.60 12.10 13.30 11.90
23/10/2021 13:00:0013.10 12.80 12.90 0.00 13.80 26.00 9.80 86.20 1005.80 11.60 11.50 11.30 11.60 12.10 13.40 12.30
23/10/2021 12:00:0013.30 12.90 13.10 0.00 17.10 28.40 14.40 84.60 1006.30 11.50 11.30 11.20 11.60 12.10 13.40 12.20
23/10/2021 11:00:0013.10 12.70 12.90 0.20 15.20 25.20 22.00 88.10 1007.10 11.30 11.20 11.10 11.60 12.10 13.40 12.10
23/10/2021 10:00:0013.20 12.70 13.00 0.00 15.00 25.40 12.90 85.80 1007.60 11.10 11.00 11.10 11.50 12.10 13.40 12.10
23/10/2021 09:00:0013.00 12.20 12.60 0.10 16.80 26.10 7.50 90.50 1007.60 10.90 10.90 11.10 11.50 12.10 13.40 11.50
23/10/2021 08:00:0012.20 12.10 12.10 0.00 16.10 26.20 0.30 91.50 1008.00 10.80 10.80 11.10 11.50 12.10 13.40 11.30
23/10/2021 07:00:0012.20 11.80 12.00 0.10 15.30 23.90 0.00 90.60 1008.40 10.70 10.70 11.10 11.50 12.20 13.40 10.90
23/10/2021 06:00:0011.80 10.20 11.00 0.20 12.50 21.30 0.00 91.10 1009.20 10.60 10.70 11.10 11.50 12.20 13.40 9.60
23/10/2021 05:00:0010.70 10.10 10.40 0.10 10.40 18.90 0.00 90.30 1009.90 10.60 10.70 11.10 11.50 12.20 13.40 9.50
23/10/2021 04:00:0011.20 10.70 10.90 0.00 10.90 16.90 0.00 87.10 1010.60 10.60 10.70 11.10 11.60 12.20 13.40 9.90
23/10/2021 03:00:0011.80 11.00 11.40 0.00 11.50 21.30 0.00 82.90 1011.40 10.60 10.70 11.10 11.60 12.20 13.40 10.50
23/10/2021 02:00:0011.90 11.30 11.60 0.00 12.70 24.60 0.00 80.30 1012.30 10.60 10.70 11.20 11.60 12.20 13.40 10.70
23/10/2021 01:00:0011.40 10.80 11.10 0.00 12.00 20.60 0.00 83.10 1013.10 10.60 10.80 11.20 11.60 12.20 13.50 10.00
23/10/2021 00:00:0011.20 10.70 11.00 0.00 9.80 16.30 0.00 85.00 1014.10 10.60 10.80 11.30 11.60 12.20 13.50 10.20
22/10/2021 23:00:0010.80 10.00 10.40 0.00 8.40 13.80 0.00 89.00 1015.00 10.70 10.90 11.30 11.60 12.20 13.50 9.30
22/10/2021 22:00:0010.30 10.00 10.10 0.00 10.00 13.70 0.00 87.60 1015.60 10.80 11.00 11.40 11.70 12.10 13.50 9.30